sensor_id;sensor_type;location;lat;lon;timestamp;P1;durP1;ratioP1;P2;durP2;ratioP2
43809;SDS011;29440;48.208;11.162;2022-10-15T00:01:54;3.20;;;0.80;;
43809;SDS011;29440;48.208;11.162;2022-10-15T00:04:20;2.05;;;0.57;;
43809;SDS011;29440;48.208;11.162;2022-10-15T00:06:45;1.30;;;0.77;;
43809;SDS011;29440;48.208;11.162;2022-10-15T00:09:11;3.30;;;0.75;;
43809;SDS011;29440;48.208;11.162;2022-10-15T00:11:36;2.08;;;0.60;;
43809;SDS011;29440;48.208;11.162;2022-10-15T00:14:04;1.90;;;0.70;;
43809;SDS011;29440;48.208;11.162;2022-10-15T00:16:30;1.40;;;0.63;;
43809;SDS011;29440;48.208;11.162;2022-10-15T00:18:57;1.27;;;0.65;;
43809;SDS011;29440;48.208;11.162;2022-10-15T00:21:24;1.67;;;0.70;;
43809;SDS011;29440;48.208;11.162;2022-10-15T00:23:49;2.28;;;0.70;;
43809;SDS011;29440;48.208;11.162;2022-10-15T00:26:17;1.95;;;0.60;;
43809;SDS011;29440;48.208;11.162;2022-10-15T00:28:44;0.80;;;0.60;;
43809;SDS011;29440;48.208;11.162;2022-10-15T00:31:14;1.30;;;0.68;;
43809;SDS011;29440;48.208;11.162;2022-10-15T00:33:41;3.20;;;0.75;;
43809;SDS011;29440;48.208;11.162;2022-10-15T00:36:09;1.65;;;0.75;;
43809;SDS011;29440;48.208;11.162;2022-10-15T00:38:38;1.40;;;0.70;;
43809;SDS011;29440;48.208;11.162;2022-10-15T00:41:04;2.22;;;0.80;;
43809;SDS011;29440;48.208;11.162;2022-10-15T00:43:38;1.90;;;0.77;;
43809;SDS011;29440;48.208;11.162;2022-10-15T00:46:34;1.02;;;0.65;;
43809;SDS011;29440;48.208;11.162;2022-10-15T00:49:14;2.35;;;0.60;;
43809;SDS011;29440;48.208;11.162;2022-10-15T00:51:52;2.28;;;0.90;;
43809;SDS011;29440;48.208;11.162;2022-10-15T00:54:21;1.90;;;0.70;;
43809;SDS011;29440;48.208;11.162;2022-10-15T00:56:49;2.25;;;0.90;;
43809;SDS011;29440;48.208;11.162;2022-10-15T00:59:15;2.17;;;0.73;;
43809;SDS011;29440;48.208;11.162;2022-10-15T01:01:42;1.50;;;0.70;;
43809;SDS011;29440;48.208;11.162;2022-10-15T01:04:08;2.97;;;0.73;;
43809;SDS011;29440;48.208;11.162;2022-10-15T01:06:35;1.98;;;0.82;;
43809;SDS011;29440;48.208;11.162;2022-10-15T01:09:01;1.08;;;0.60;;
43809;SDS011;29440;48.208;11.162;2022-10-15T01:11:39;1.80;;;0.70;;
43809;SDS011;29440;48.208;11.162;2022-10-15T01:22:22;1.15;;;0.63;;
43809;SDS011;29440;48.208;11.162;2022-10-15T01:25:32;3.17;;;0.70;;
43809;SDS011;29440;48.208;11.162;2022-10-15T01:28:28;0.90;;;0.50;;
43809;SDS011;29440;48.208;11.162;2022-10-15T01:31:09;1.52;;;0.60;;
43809;SDS011;29440;48.208;11.162;2022-10-15T01:34:00;1.63;;;0.60;;
43809;SDS011;29440;48.208;11.162;2022-10-15T01:36:33;2.20;;;0.80;;
43809;SDS011;29440;48.208;11.162;2022-10-15T01:41:36;1.83;;;0.50;;
43809;SDS011;29440;48.208;11.162;2022-10-15T01:44:12;1.38;;;0.50;;
43809;SDS011;29440;48.208;11.162;2022-10-15T01:46:46;0.90;;;0.50;;
43809;SDS011;29440;48.208;11.162;2022-10-15T01:49:44;1.63;;;1.17;;
43809;SDS011;29440;48.208;11.162;2022-10-15T01:52:13;1.65;;;0.70;;
43809;SDS011;29440;48.208;11.162;2022-10-15T01:54:44;3.08;;;0.70;;
43809;SDS011;29440;48.208;11.162;2022-10-15T01:57:11;2.38;;;0.60;;
43809;SDS011;29440;48.208;11.162;2022-10-15T01:59:38;0.73;;;0.50;;
43809;SDS011;29440;48.208;11.162;2022-10-15T02:02:05;1.83;;;0.80;;
43809;SDS011;29440;48.208;11.162;2022-10-15T02:04:31;1.67;;;0.60;;
43809;SDS011;29440;48.208;11.162;2022-10-15T02:07:21;1.23;;;0.70;;
43809;SDS011;29440;48.208;11.162;2022-10-15T02:15:44;0.90;;;0.50;;
43809;SDS011;29440;48.208;11.162;2022-10-15T02:20:55;1.35;;;0.50;;
43809;SDS011;29440;48.208;11.162;2022-10-15T02:25:59;0.65;;;0.32;;
43809;SDS011;29440;48.208;11.162;2022-10-15T02:28:29;0.73;;;0.40;;
43809;SDS011;29440;48.208;11.162;2022-10-15T02:30:57;1.17;;;0.40;;
43809;SDS011;29440;48.208;11.162;2022-10-15T02:33:23;0.43;;;0.30;;
43809;SDS011;29440;48.208;11.162;2022-10-15T02:35:51;3.03;;;0.38;;
43809;SDS011;29440;48.208;11.162;2022-10-15T02:38:19;0.55;;;0.40;;
43809;SDS011;29440;48.208;11.162;2022-10-15T02:40:48;0.47;;;0.30;;
43809;SDS011;29440;48.208;11.162;2022-10-15T02:43:14;0.40;;;0.30;;
43809;SDS011;29440;48.208;11.162;2022-10-15T02:45:42;1.05;;;0.20;;
43809;SDS011;29440;48.208;11.162;2022-10-15T02:48:09;0.52;;;0.20;;
43809;SDS011;29440;48.208;11.162;2022-10-15T02:50:35;0.25;;;0.20;;
43809;SDS011;29440;48.208;11.162;2022-10-15T02:53:01;0.30;;;0.20;;
43809;SDS011;29440;48.208;11.162;2022-10-15T02:55:27;0.90;;;0.43;;
43809;SDS011;29440;48.208;11.162;2022-10-15T02:57:53;1.33;;;0.20;;
43809;SDS011;29440;48.208;11.162;2022-10-15T03:00:18;0.28;;;0.20;;
43809;SDS011;29440;48.208;11.162;2022-10-15T03:02:44;0.28;;;0.20;;
43809;SDS011;29440;48.208;11.162;2022-10-15T03:05:10;0.10;;;0.10;;
43809;SDS011;29440;48.208;11.162;2022-10-15T03:07:36;0.90;;;0.85;;
43809;SDS011;29440;48.208;11.162;2022-10-15T03:10:02;0.30;;;0.20;;
43809;SDS011;29440;48.208;11.162;2022-10-15T03:12:28;0.50;;;0.20;;
43809;SDS011;29440;48.208;11.162;2022-10-15T03:14:54;2.05;;;0.20;;
43809;SDS011;29440;48.208;11.162;2022-10-15T03:17:20;0.20;;;0.20;;
43809;SDS011;29440;48.208;11.162;2022-10-15T03:19:45;0.10;;;0.10;;
43809;SDS011;29440;48.208;11.162;2022-10-15T03:22:11;0.30;;;0.20;;
43809;SDS011;29440;48.208;11.162;2022-10-15T03:24:37;0.20;;;0.20;;
43809;SDS011;29440;48.208;11.162;2022-10-15T03:27:21;0.73;;;0.20;;
43809;SDS011;29440;48.208;11.162;2022-10-15T03:29:47;0.22;;;0.10;;
43809;SDS011;29440;48.208;11.162;2022-10-15T03:32:12;0.28;;;0.20;;
43809;SDS011;29440;48.208;11.162;2022-10-15T03:34:38;0.50;;;0.20;;
43809;SDS011;29440;48.208;11.162;2022-10-15T03:37:03;1.45;;;0.10;;
43809;SDS011;29440;48.208;11.162;2022-10-15T03:39:29;0.98;;;0.20;;
43809;SDS011;29440;48.208;11.162;2022-10-15T03:41:55;0.22;;;0.10;;
43809;SDS011;29440;48.208;11.162;2022-10-15T03:44:20;0.10;;;0.10;;
43809;SDS011;29440;48.208;11.162;2022-10-15T03:46:46;1.85;;;0.20;;
43809;SDS011;29440;48.208;11.162;2022-10-15T03:49:12;0.10;;;0.10;;
43809;SDS011;29440;48.208;11.162;2022-10-15T03:51:38;0.10;;;0.10;;
43809;SDS011;29440;48.208;11.162;2022-10-15T03:54:03;0.10;;;0.10;;
43809;SDS011;29440;48.208;11.162;2022-10-15T03:56:29;0.68;;;0.15;;
43809;SDS011;29440;48.208;11.162;2022-10-15T03:58:54;0.30;;;0.10;;
43809;SDS011;29440;48.208;11.162;2022-10-15T04:01:20;0.10;;;0.10;;
43809;SDS011;29440;48.208;11.162;2022-10-15T04:03:46;0.88;;;0.40;;
43809;SDS011;29440;48.208;11.162;2022-10-15T04:06:11;0.30;;;0.20;;
43809;SDS011;29440;48.208;11.162;2022-10-15T04:08:37;2.50;;;0.20;;
43809;SDS011;29440;48.208;11.162;2022-10-15T04:11:03;0.10;;;0.10;;
43809;SDS011;29440;48.208;11.162;2022-10-15T04:13:28;0.10;;;0.10;;
43809;SDS011;29440;48.208;11.162;2022-10-15T04:15:54;0.22;;;0.10;;
43809;SDS011;29440;48.208;11.162;2022-10-15T04:18:20;0.25;;;0.10;;
43809;SDS011;29440;48.208;11.162;2022-10-15T04:20:48;1.35;;;0.20;;
43809;SDS011;29440;48.208;11.162;2022-10-15T04:23:14;0.10;;;0.10;;
43809;SDS011;29440;48.208;11.162;2022-10-15T04:25:42;0.20;;;0.20;;
43809;SDS011;29440;48.208;11.162;2022-10-15T04:28:08;0.20;;;0.20;;
43809;SDS011;29440;48.208;11.162;2022-10-15T04:30:34;0.68;;;0.20;;
43809;SDS011;29440;48.208;11.162;2022-10-15T04:32:59;0.10;;;0.10;;
43809;SDS011;29440;48.208;11.162;2022-10-15T04:35:25;0.57;;;0.20;;
43809;SDS011;29440;48.208;11.162;2022-10-15T04:37:51;0.20;;;0.20;;
43809;SDS011;29440;48.208;11.162;2022-10-15T04:40:17;0.22;;;0.20;;
43809;SDS011;29440;48.208;11.162;2022-10-15T04:42:43;0.50;;;0.20;;
43809;SDS011;29440;48.208;11.162;2022-10-15T04:45:09;0.25;;;0.13;;
43809;SDS011;29440;48.208;11.162;2022-10-15T04:47:36;0.20;;;0.20;;
43809;SDS011;29440;48.208;11.162;2022-10-15T04:50:01;0.60;;;0.20;;
43809;SDS011;29440;48.208;11.162;2022-10-15T04:52:27;0.22;;;0.20;;
43809;SDS011;29440;48.208;11.162;2022-10-15T04:54:53;0.28;;;0.10;;
43809;SDS011;29440;48.208;11.162;2022-10-15T04:57:18;0.40;;;0.20;;
43809;SDS011;29440;48.208;11.162;2022-10-15T04:59:44;0.28;;;0.20;;
43809;SDS011;29440;48.208;11.162;2022-10-15T05:02:10;3.42;;;0.30;;
43809;SDS011;29440;48.208;11.162;2022-10-15T05:04:36;0.38;;;0.20;;
43809;SDS011;29440;48.208;11.162;2022-10-15T05:07:02;0.20;;;0.20;;
43809;SDS011;29440;48.208;11.162;2022-10-15T05:09:27;0.93;;;0.20;;
43809;SDS011;29440;48.208;11.162;2022-10-15T05:11:53;0.20;;;0.20;;
43809;SDS011;29440;48.208;11.162;2022-10-15T05:14:20;0.30;;;0.25;;
43809;SDS011;29440;48.208;11.162;2022-10-15T05:16:46;0.45;;;0.20;;
43809;SDS011;29440;48.208;11.162;2022-10-15T05:19:11;0.20;;;0.20;;
43809;SDS011;29440;48.208;11.162;2022-10-15T05:21:37;0.20;;;0.20;;
43809;SDS011;29440;48.208;11.162;2022-10-15T05:24:04;0.20;;;0.20;;
43809;SDS011;29440;48.208;11.162;2022-10-15T05:26:30;0.17;;;0.13;;
43809;SDS011;29440;48.208;11.162;2022-10-15T05:28:56;0.20;;;0.20;;
43809;SDS011;29440;48.208;11.162;2022-10-15T05:31:24;0.10;;;0.10;;
43809;SDS011;29440;48.208;11.162;2022-10-15T05:33:53;2.10;;;0.20;;
43809;SDS011;29440;48.208;11.162;2022-10-15T05:36:21;0.98;;;0.50;;
43809;SDS011;29440;48.208;11.162;2022-10-15T05:38:56;0.60;;;0.40;;
43809;SDS011;29440;48.208;11.162;2022-10-15T05:41:24;0.20;;;0.20;;
43809;SDS011;29440;48.208;11.162;2022-10-15T05:43:52;1.23;;;0.30;;
43809;SDS011;29440;48.208;11.162;2022-10-15T05:46:19;0.20;;;0.20;;
43809;SDS011;29440;48.208;11.162;2022-10-15T05:48:49;0.68;;;0.30;;
43809;SDS011;29440;48.208;11.162;2022-10-15T05:51:16;1.13;;;0.30;;
43809;SDS011;29440;48.208;11.162;2022-10-15T05:53:42;1.10;;;0.20;;
43809;SDS011;29440;48.208;11.162;2022-10-15T05:56:10;0.30;;;0.20;;
43809;SDS011;29440;48.208;11.162;2022-10-15T05:58:36;0.95;;;0.20;;
43809;SDS011;29440;48.208;11.162;2022-10-15T06:01:03;0.85;;;0.20;;
43809;SDS011;29440;48.208;11.162;2022-10-15T06:03:30;0.57;;;0.20;;
43809;SDS011;29440;48.208;11.162;2022-10-15T06:05:55;0.68;;;0.20;;
43809;SDS011;29440;48.208;11.162;2022-10-15T06:08:21;0.98;;;0.30;;
43809;SDS011;29440;48.208;11.162;2022-10-15T06:10:47;0.50;;;0.20;;
43809;SDS011;29440;48.208;11.162;2022-10-15T06:13:13;1.17;;;0.20;;
43809;SDS011;29440;48.208;11.162;2022-10-15T06:15:40;0.77;;;0.30;;
43809;SDS011;29440;48.208;11.162;2022-10-15T06:18:07;0.63;;;0.35;;
43809;SDS011;29440;48.208;11.162;2022-10-15T06:20:34;0.28;;;0.20;;
43809;SDS011;29440;48.208;11.162;2022-10-15T06:23:01;0.85;;;0.40;;
43809;SDS011;29440;48.208;11.162;2022-10-15T06:25:28;0.30;;;0.20;;
43809;SDS011;29440;48.208;11.162;2022-10-15T06:27:53;0.40;;;0.20;;
43809;SDS011;29440;48.208;11.162;2022-10-15T06:30:19;0.40;;;0.20;;
43809;SDS011;29440;48.208;11.162;2022-10-15T06:32:46;0.40;;;0.20;;
43809;SDS011;29440;48.208;11.162;2022-10-15T06:35:15;0.63;;;0.32;;
43809;SDS011;29440;48.208;11.162;2022-10-15T06:37:42;0.85;;;0.50;;
43809;SDS011;29440;48.208;11.162;2022-10-15T06:40:10;0.10;;;0.10;;
43809;SDS011;29440;48.208;11.162;2022-10-15T06:42:36;0.30;;;0.20;;
43809;SDS011;29440;48.208;11.162;2022-10-15T06:45:03;0.57;;;0.20;;
43809;SDS011;29440;48.208;11.162;2022-10-15T06:47:29;0.40;;;0.20;;
43809;SDS011;29440;48.208;11.162;2022-10-15T06:49:54;0.20;;;0.20;;
43809;SDS011;29440;48.208;11.162;2022-10-15T06:52:20;0.55;;;0.30;;
43809;SDS011;29440;48.208;11.162;2022-10-15T06:54:50;0.22;;;0.20;;
43809;SDS011;29440;48.208;11.162;2022-10-15T06:57:16;1.13;;;0.20;;
43809;SDS011;29440;48.208;11.162;2022-10-15T06:59:52;0.25;;;0.25;;
43809;SDS011;29440;48.208;11.162;2022-10-15T07:02:18;0.20;;;0.20;;
43809;SDS011;29440;48.208;11.162;2022-10-15T07:04:44;0.20;;;0.20;;
43809;SDS011;29440;48.208;11.162;2022-10-15T07:07:11;0.38;;;0.20;;
43809;SDS011;29440;48.208;11.162;2022-10-15T07:09:40;1.05;;;0.20;;
43809;SDS011;29440;48.208;11.162;2022-10-15T07:12:05;1.67;;;0.45;;
43809;SDS011;29440;48.208;11.162;2022-10-15T07:14:31;0.20;;;0.20;;
43809;SDS011;29440;48.208;11.162;2022-10-15T07:16:59;0.50;;;0.30;;
43809;SDS011;29440;48.208;11.162;2022-10-15T07:19:25;0.85;;;0.45;;
43809;SDS011;29440;48.208;11.162;2022-10-15T07:21:52;0.50;;;0.30;;
43809;SDS011;29440;48.208;11.162;2022-10-15T07:24:18;0.50;;;0.20;;
43809;SDS011;29440;48.208;11.162;2022-10-15T07:26:45;0.50;;;0.50;;
43809;SDS011;29440;48.208;11.162;2022-10-15T07:29:11;1.67;;;0.30;;
43809;SDS011;29440;48.208;11.162;2022-10-15T07:31:37;0.75;;;0.30;;
43809;SDS011;29440;48.208;11.162;2022-10-15T07:34:03;0.40;;;0.30;;
43809;SDS011;29440;48.208;11.162;2022-10-15T07:36:30;0.40;;;0.30;;
43809;SDS011;29440;48.208;11.162;2022-10-15T07:38:56;0.30;;;0.30;;
43809;SDS011;29440;48.208;11.162;2022-10-15T07:41:21;0.20;;;0.20;;
43809;SDS011;29440;48.208;11.162;2022-10-15T07:43:47;1.95;;;0.20;;
43809;SDS011;29440;48.208;11.162;2022-10-15T07:46:15;1.48;;;0.30;;
43809;SDS011;29440;48.208;11.162;2022-10-15T07:48:41;0.73;;;0.30;;
43809;SDS011;29440;48.208;11.162;2022-10-15T07:51:07;0.40;;;0.20;;
43809;SDS011;29440;48.208;11.162;2022-10-15T07:53:35;0.60;;;0.30;;
43809;SDS011;29440;48.208;11.162;2022-10-15T07:56:04;0.40;;;0.25;;
43809;SDS011;29440;48.208;11.162;2022-10-15T07:58:32;1.33;;;0.20;;
43809;SDS011;29440;48.208;11.162;2022-10-15T08:01:02;1.48;;;0.30;;
43809;SDS011;29440;48.208;11.162;2022-10-15T08:03:31;2.42;;;0.88;;
43809;SDS011;29440;48.208;11.162;2022-10-15T08:06:01;1.38;;;0.50;;
43809;SDS011;29440;48.208;11.162;2022-10-15T08:08:29;9.88;;;3.88;;
43809;SDS011;29440;48.208;11.162;2022-10-15T08:10:55;3.10;;;1.48;;
43809;SDS011;29440;48.208;11.162;2022-10-15T08:13:21;8.55;;;2.45;;
43809;SDS011;29440;48.208;11.162;2022-10-15T08:15:51;1.10;;;0.32;;
43809;SDS011;29440;48.208;11.162;2022-10-15T08:18:16;2.33;;;0.52;;
43809;SDS011;29440;48.208;11.162;2022-10-15T08:20:42;6.50;;;2.55;;
43809;SDS011;29440;48.208;11.162;2022-10-15T08:23:12;4.15;;;1.20;;
43809;SDS011;29440;48.208;11.162;2022-10-15T08:25:40;2.53;;;0.80;;
43809;SDS011;29440;48.208;11.162;2022-10-15T08:28:06;0.50;;;0.38;;
43809;SDS011;29440;48.208;11.162;2022-10-15T08:30:33;0.50;;;0.40;;
43809;SDS011;29440;48.208;11.162;2022-10-15T08:32:59;0.47;;;0.30;;
43809;SDS011;29440;48.208;11.162;2022-10-15T08:35:25;0.88;;;0.30;;
43809;SDS011;29440;48.208;11.162;2022-10-15T08:37:54;0.60;;;0.55;;
43809;SDS011;29440;48.208;11.162;2022-10-15T08:40:20;0.43;;;0.30;;
43809;SDS011;29440;48.208;11.162;2022-10-15T08:42:46;0.40;;;0.30;;
43809;SDS011;29440;48.208;11.162;2022-10-15T08:45:16;0.35;;;0.20;;
43809;SDS011;29440;48.208;11.162;2022-10-15T08:47:47;1.20;;;0.30;;
43809;SDS011;29440;48.208;11.162;2022-10-15T08:53:24;0.77;;;0.30;;
43809;SDS011;29440;48.208;11.162;2022-10-15T08:55:52;0.30;;;0.20;;
43809;SDS011;29440;48.208;11.162;2022-10-15T08:58:38;1.50;;;0.30;;
43809;SDS011;29440;48.208;11.162;2022-10-15T09:01:08;1.67;;;0.20;;
43809;SDS011;29440;48.208;11.162;2022-10-15T09:03:51;0.60;;;0.30;;
43809;SDS011;29440;48.208;11.162;2022-10-15T09:06:35;0.60;;;0.20;;
43809;SDS011;29440;48.208;11.162;2022-10-15T09:12:17;0.90;;;0.30;;
43809;SDS011;29440;48.208;11.162;2022-10-15T09:14:52;1.02;;;0.25;;
43809;SDS011;29440;48.208;11.162;2022-10-15T09:17:22;0.30;;;0.22;;
43809;SDS011;29440;48.208;11.162;2022-10-15T09:19:51;0.40;;;0.25;;
43809;SDS011;29440;48.208;11.162;2022-10-15T09:22:22;1.98;;;0.38;;
43809;SDS011;29440;48.208;11.162;2022-10-15T09:24:52;3.67;;;0.30;;
43809;SDS011;29440;48.208;11.162;2022-10-15T09:27:26;0.85;;;0.40;;
43809;SDS011;29440;48.208;11.162;2022-10-15T09:32:55;2.28;;;0.30;;
43809;SDS011;29440;48.208;11.162;2022-10-15T09:35:27;1.05;;;0.43;;
43809;SDS011;29440;48.208;11.162;2022-10-15T09:40:54;0.60;;;0.60;;
43809;SDS011;29440;48.208;11.162;2022-10-15T09:43:40;1.38;;;0.30;;
43809;SDS011;29440;48.208;11.162;2022-10-15T09:46:08;0.60;;;0.30;;
43809;SDS011;29440;48.208;11.162;2022-10-15T09:48:35;0.73;;;0.30;;
43809;SDS011;29440;48.208;11.162;2022-10-15T09:53:51;1.98;;;0.30;;
43809;SDS011;29440;48.208;11.162;2022-10-15T09:56:20;0.40;;;0.20;;
43809;SDS011;29440;48.208;11.162;2022-10-15T09:58:51;1.58;;;0.30;;
43809;SDS011;29440;48.208;11.162;2022-10-15T10:01:23;3.15;;;0.38;;
43809;SDS011;29440;48.208;11.162;2022-10-15T10:04:16;2.43;;;0.33;;
43809;SDS011;29440;48.208;11.162;2022-10-15T10:06:44;1.13;;;0.30;;
43809;SDS011;29440;48.208;11.162;2022-10-15T10:09:22;1.25;;;0.22;;
43809;SDS011;29440;48.208;11.162;2022-10-15T10:11:59;0.50;;;0.30;;
43809;SDS011;29440;48.208;11.162;2022-10-15T10:14:38;0.17;;;0.13;;
43809;SDS011;29440;48.208;11.162;2022-10-15T10:19:45;0.60;;;0.20;;
43809;SDS011;29440;48.208;11.162;2022-10-15T10:22:43;1.95;;;0.20;;
43809;SDS011;29440;48.208;11.162;2022-10-15T10:30:34;1.30;;;0.30;;
43809;SDS011;29440;48.208;11.162;2022-10-15T10:33:06;0.70;;;0.50;;
43809;SDS011;29440;48.208;11.162;2022-10-15T10:35:44;0.80;;;0.20;;
43809;SDS011;29440;48.208;11.162;2022-10-15T10:38:20;3.10;;;0.40;;
43809;SDS011;29440;48.208;11.162;2022-10-15T10:40:50;0.45;;;0.20;;
43809;SDS011;29440;48.208;11.162;2022-10-15T10:43:26;5.55;;;0.20;;
43809;SDS011;29440;48.208;11.162;2022-10-15T10:45:57;0.90;;;0.20;;
43809;SDS011;29440;48.208;11.162;2022-10-15T10:48:33;0.60;;;0.22;;
43809;SDS011;29440;48.208;11.162;2022-10-15T10:53:36;0.32;;;0.20;;
43809;SDS011;29440;48.208;11.162;2022-10-15T10:56:15;0.65;;;0.20;;
43809;SDS011;29440;48.208;11.162;2022-10-15T10:58:44;0.88;;;0.22;;
43809;SDS011;29440;48.208;11.162;2022-10-15T11:01:11;0.52;;;0.20;;
43809;SDS011;29440;48.208;11.162;2022-10-15T11:03:38;0.98;;;0.22;;
43809;SDS011;29440;48.208;11.162;2022-10-15T11:14:46;2.30;;;0.30;;
43809;SDS011;29440;48.208;11.162;2022-10-15T11:33:49;1.08;;;0.30;;
43809;SDS011;29440;48.208;11.162;2022-10-15T11:36:33;1.88;;;0.32;;
43809;SDS011;29440;48.208;11.162;2022-10-15T11:39:39;1.80;;;0.30;;
43809;SDS011;29440;48.208;11.162;2022-10-15T11:57:48;0.55;;;0.30;;
43809;SDS011;29440;48.208;11.162;2022-10-15T12:02:54;1.63;;;0.30;;
43809;SDS011;29440;48.208;11.162;2022-10-15T12:05:28;1.90;;;0.30;;
43809;SDS011;29440;48.208;11.162;2022-10-15T12:08:03;0.40;;;0.20;;
43809;SDS011;29440;48.208;11.162;2022-10-15T12:13:31;1.05;;;0.20;;
43809;SDS011;29440;48.208;11.162;2022-10-15T12:18:49;1.23;;;0.20;;
43809;SDS011;29440;48.208;11.162;2022-10-15T12:23:54;1.95;;;0.35;;
43809;SDS011;29440;48.208;11.162;2022-10-15T12:28:49;2.05;;;0.28;;
43809;SDS011;29440;48.208;11.162;2022-10-15T12:31:21;0.98;;;0.20;;
43809;SDS011;29440;48.208;11.162;2022-10-15T12:33:54;1.27;;;0.17;;
43809;SDS011;29440;48.208;11.162;2022-10-15T12:36:25;0.77;;;0.30;;
43809;SDS011;29440;48.208;11.162;2022-10-15T12:39:00;1.40;;;0.30;;
43809;SDS011;29440;48.208;11.162;2022-10-15T12:41:44;3.03;;;0.30;;
43809;SDS011;29440;48.208;11.162;2022-10-15T12:46:44;2.15;;;0.30;;
43809;SDS011;29440;48.208;11.162;2022-10-15T12:51:52;1.13;;;0.20;;
43809;SDS011;29440;48.208;11.162;2022-10-15T12:54:31;0.30;;;0.20;;
43809;SDS011;29440;48.208;11.162;2022-10-15T13:02:53;1.38;;;0.20;;
43809;SDS011;29440;48.208;11.162;2022-10-15T13:05:26;0.90;;;0.30;;
43809;SDS011;29440;48.208;11.162;2022-10-15T13:07:54;0.55;;;0.20;;
43809;SDS011;29440;48.208;11.162;2022-10-15T13:10:23;2.00;;;0.30;;
43809;SDS011;29440;48.208;11.162;2022-10-15T13:12:54;0.65;;;0.20;;
43809;SDS011;29440;48.208;11.162;2022-10-15T13:15:27;0.80;;;0.30;;
43809;SDS011;29440;48.208;11.162;2022-10-15T13:17:55;0.95;;;0.40;;
43809;SDS011;29440;48.208;11.162;2022-10-15T13:20:43;0.95;;;0.20;;
43809;SDS011;29440;48.208;11.162;2022-10-15T13:23:15;0.40;;;0.40;;
43809;SDS011;29440;48.208;11.162;2022-10-15T13:25:42;3.95;;;0.30;;
43809;SDS011;29440;48.208;11.162;2022-10-15T13:30:57;2.30;;;0.30;;
43809;SDS011;29440;48.208;11.162;2022-10-15T13:33:26;2.05;;;0.20;;
43809;SDS011;29440;48.208;11.162;2022-10-15T13:35:52;0.70;;;0.30;;
43809;SDS011;29440;48.208;11.162;2022-10-15T13:38:22;0.98;;;0.30;;
43809;SDS011;29440;48.208;11.162;2022-10-15T13:40:50;0.90;;;0.20;;
43809;SDS011;29440;48.208;11.162;2022-10-15T13:43:19;0.43;;;0.30;;
43809;SDS011;29440;48.208;11.162;2022-10-15T13:45:46;0.45;;;0.30;;
43809;SDS011;29440;48.208;11.162;2022-10-15T13:48:20;1.95;;;0.40;;
43809;SDS011;29440;48.208;11.162;2022-10-15T13:50:57;0.50;;;0.32;;
43809;SDS011;29440;48.208;11.162;2022-10-15T13:53:35;2.88;;;0.40;;
43809;SDS011;29440;48.208;11.162;2022-10-15T13:58:53;2.88;;;0.40;;
43809;SDS011;29440;48.208;11.162;2022-10-15T14:01:20;1.52;;;0.50;;
43809;SDS011;29440;48.208;11.162;2022-10-15T14:03:52;1.35;;;0.43;;
43809;SDS011;29440;48.208;11.162;2022-10-15T14:06:20;1.88;;;0.30;;
43809;SDS011;29440;48.208;11.162;2022-10-15T14:08:54;1.73;;;0.40;;
43809;SDS011;29440;48.208;11.162;2022-10-15T14:11:36;1.60;;;0.50;;
43809;SDS011;29440;48.208;11.162;2022-10-15T14:14:04;0.80;;;0.40;;
43809;SDS011;29440;48.208;11.162;2022-10-15T14:17:00;1.95;;;0.40;;
43809;SDS011;29440;48.208;11.162;2022-10-15T14:19:31;1.52;;;0.55;;
43809;SDS011;29440;48.208;11.162;2022-10-15T14:21:59;2.78;;;0.80;;
43809;SDS011;29440;48.208;11.162;2022-10-15T14:24:30;3.65;;;0.65;;
43809;SDS011;29440;48.208;11.162;2022-10-15T14:27:13;1.10;;;0.50;;
43809;SDS011;29440;48.208;11.162;2022-10-15T14:29:45;1.98;;;0.50;;
43809;SDS011;29440;48.208;11.162;2022-10-15T14:32:29;0.77;;;0.43;;
43809;SDS011;29440;48.208;11.162;2022-10-15T14:35:20;3.05;;;0.80;;
43809;SDS011;29440;48.208;11.162;2022-10-15T14:37:57;2.08;;;0.52;;
43809;SDS011;29440;48.208;11.162;2022-10-15T14:40:24;2.67;;;0.30;;
43809;SDS011;29440;48.208;11.162;2022-10-15T14:47:58;1.08;;;0.40;;
43809;SDS011;29440;48.208;11.162;2022-10-15T14:50:33;0.57;;;0.40;;
43809;SDS011;29440;48.208;11.162;2022-10-15T14:53:06;0.60;;;0.40;;
43809;SDS011;29440;48.208;11.162;2022-10-15T14:55:46;0.85;;;0.32;;
43809;SDS011;29440;48.208;11.162;2022-10-15T14:58:17;1.25;;;0.50;;
43809;SDS011;29440;48.208;11.162;2022-10-15T15:00:45;1.30;;;0.60;;
43809;SDS011;29440;48.208;11.162;2022-10-15T15:03:14;1.33;;;0.73;;
43809;SDS011;29440;48.208;11.162;2022-10-15T15:05:53;1.42;;;0.70;;
43809;SDS011;29440;48.208;11.162;2022-10-15T15:08:22;2.20;;;0.60;;
43809;SDS011;29440;48.208;11.162;2022-10-15T15:10:49;1.33;;;0.38;;
43809;SDS011;29440;48.208;11.162;2022-10-15T15:13:22;4.90;;;0.70;;
43809;SDS011;29440;48.208;11.162;2022-10-15T15:15:50;2.08;;;0.70;;
43809;SDS011;29440;48.208;11.162;2022-10-15T15:18:16;1.25;;;0.50;;
43809;SDS011;29440;48.208;11.162;2022-10-15T15:20:42;1.92;;;0.50;;
43809;SDS011;29440;48.208;11.162;2022-10-15T15:23:13;1.73;;;0.40;;
43809;SDS011;29440;48.208;11.162;2022-10-15T15:25:44;1.33;;;0.70;;
43809;SDS011;29440;48.208;11.162;2022-10-15T15:28:11;1.80;;;0.90;;
43809;SDS011;29440;48.208;11.162;2022-10-15T15:30:39;1.60;;;0.70;;
43809;SDS011;29440;48.208;11.162;2022-10-15T15:33:09;3.17;;;1.27;;
43809;SDS011;29440;48.208;11.162;2022-10-15T15:38:16;7.10;;;2.80;;
43809;SDS011;29440;48.208;11.162;2022-10-15T15:40:42;5.50;;;2.00;;
43809;SDS011;29440;48.208;11.162;2022-10-15T15:43:09;3.95;;;1.35;;
43809;SDS011;29440;48.208;11.162;2022-10-15T15:45:37;2.33;;;1.33;;
43809;SDS011;29440;48.208;11.162;2022-10-15T15:48:02;2.17;;;0.80;;
43809;SDS011;29440;48.208;11.162;2022-10-15T15:50:29;2.03;;;0.90;;
43809;SDS011;29440;48.208;11.162;2022-10-15T15:52:54;1.05;;;0.60;;
43809;SDS011;29440;48.208;11.162;2022-10-15T15:55:20;3.03;;;0.80;;
43809;SDS011;29440;48.208;11.162;2022-10-15T15:57:46;2.88;;;1.10;;
43809;SDS011;29440;48.208;11.162;2022-10-15T16:00:12;3.58;;;2.05;;
43809;SDS011;29440;48.208;11.162;2022-10-15T16:02:38;2.42;;;1.10;;
43809;SDS011;29440;48.208;11.162;2022-10-15T16:05:04;1.50;;;0.73;;
43809;SDS011;29440;48.208;11.162;2022-10-15T16:07:30;1.65;;;0.90;;
43809;SDS011;29440;48.208;11.162;2022-10-15T16:09:56;5.93;;;1.30;;
43809;SDS011;29440;48.208;11.162;2022-10-15T16:12:22;3.40;;;1.63;;
43809;SDS011;29440;48.208;11.162;2022-10-15T16:14:47;2.50;;;1.38;;
43809;SDS011;29440;48.208;11.162;2022-10-15T16:17:13;4.93;;;1.83;;
43809;SDS011;29440;48.208;11.162;2022-10-15T16:19:39;4.70;;;1.90;;
43809;SDS011;29440;48.208;11.162;2022-10-15T16:22:04;1.85;;;0.93;;
43809;SDS011;29440;48.208;11.162;2022-10-15T16:24:30;5.13;;;1.95;;
43809;SDS011;29440;48.208;11.162;2022-10-15T16:26:55;1.92;;;1.15;;
43809;SDS011;29440;48.208;11.162;2022-10-15T16:29:21;3.22;;;0.88;;
43809;SDS011;29440;48.208;11.162;2022-10-15T16:31:47;1.42;;;0.50;;
43809;SDS011;29440;48.208;11.162;2022-10-15T16:34:12;2.17;;;0.55;;
43809;SDS011;29440;48.208;11.162;2022-10-15T16:36:38;1.60;;;0.50;;
43809;SDS011;29440;48.208;11.162;2022-10-15T16:39:04;1.77;;;0.60;;
43809;SDS011;29440;48.208;11.162;2022-10-15T16:41:30;1.63;;;0.50;;
43809;SDS011;29440;48.208;11.162;2022-10-15T16:43:55;1.13;;;0.50;;
43809;SDS011;29440;48.208;11.162;2022-10-15T16:46:21;3.35;;;0.80;;
43809;SDS011;29440;48.208;11.162;2022-10-15T16:48:53;3.15;;;0.80;;
43809;SDS011;29440;48.208;11.162;2022-10-15T16:51:20;3.38;;;0.90;;
43809;SDS011;29440;48.208;11.162;2022-10-15T16:53:47;2.20;;;0.63;;